Time,TemperatureF,DewpointF,PressureIn,WindDirection,WindDirectionDegrees,WindSpeedMPH,WindSpeedGustMPH,Humidity,HourlyPrecipIn,Conditions,Clouds,dailyrainin,SolarRadiationWatts/m^2,SoftwareType,DateUTC
2013-03-13 00:00:00,66.7,66.7,30.10,NW,323,1.0,3.0,100,0.00,,,0.00,0,Wunderground v.1.15,2013-03-13 10:00:00,
2013-03-13 00:10:00,66.5,66.5,30.10,NW,323,1.0,1.0,100,0.00,,,0.00,0,Wunderground v.1.15,2013-03-13 10:10:00,
2013-03-13 00:15:00,66.5,66.5,30.10,NW,323,0.0,1.0,100,0.00,,,0.00,0,Wunderground v.1.15,2013-03-13 10:15:00,
2013-03-13 00:20:00,66.4,66.4,30.10,NW,323,0.0,0.0,100,0.00,,,0.00,0,Wunderground v.1.15,2013-03-13 10:20:00,
2013-03-13 00:25:00,66.3,66.3,30.10,NW,323,0.0,0.0,100,0.00,,,0.00,0,Wunderground v.1.15,2013-03-13 10:25:00,
2013-03-13 00:30:00,66.2,66.2,30.10,NW,323,0.0,0.0,100,0.00,,,0.00,0,Wunderground v.1.15,2013-03-13 10:30:00,
2013-03-13 00:35:00,66.1,66.1,30.10,NW,323,0.0,0.0,100,0.00,,,0.00,0,Wunderground v.1.15,2013-03-13 10:35:00,
2013-03-13 00:45:00,66.0,66.0,30.10,NW,323,0.0,0.0,100,0.00,,,0.00,0,Wunderground v.1.15,2013-03-13 10:45:00,
2013-03-13 00:50:00,66.0,66.0,30.09,NW,323,0.0,0.0,100,0.00,,,0.00,0,Wunderground v.1.15,2013-03-13 10:50:00,
2013-03-13 00:55:00,65.9,65.9,30.09,NW,323,0.0,0.0,100,0.00,,,0.00,0,Wunderground v.1.15,2013-03-13 10:55:00,
2013-03-13 01:00:00,65.8,65.8,30.09,NW,323,0.0,0.0,100,0.00,,,0.00,0,Wunderground v.1.15,2013-03-13 11:00:00,
2013-03-13 01:10:00,65.6,65.6,30.08,NW,323,2.0,2.0,100,0.00,,,0.00,0,Wunderground v.1.15,2013-03-13 11:10:00,
2013-03-13 01:15:00,65.5,65.5,30.08,NW,323,2.0,2.0,100,0.00,,,0.00,0,Wunderground v.1.15,2013-03-13 11:15:00,
2013-03-13 01:20:00,65.4,65.4,30.08,NW,323,2.0,2.0,100,0.00,,,0.00,0,Wunderground v.1.15,2013-03-13 11:20:00,
2013-03-13 01:25:00,65.3,65.3,30.07,NW,323,2.0,2.0,100,0.00,,,0.00,0,Wunderground v.1.15,2013-03-13 11:25:00,
2013-03-13 01:30:00,65.1,65.1,30.07,NW,323,2.0,2.0,100,0.00,,,0.00,0,Wunderground v.1.15,2013-03-13 11:30:00,
2013-03-13 01:40:00,65.1,65.1,30.07,NW,323,2.0,2.0,100,0.00,,,0.00,0,Wunderground v.1.15,2013-03-13 11:40:00,
2013-03-13 01:45:00,65.0,65.0,30.06,NW,323,1.0,2.0,100,0.00,,,0.00,0,Wunderground v.1.15,2013-03-13 11:45:00,
2013-03-13 01:50:00,65.0,65.0,30.06,NW,323,1.0,3.0,100,0.00,,,0.00,0,Wunderground v.1.15,2013-03-13 11:50:00,
2013-03-13 02:00:00,65.0,65.0,30.06,NW,323,2.0,2.0,100,0.00,,,0.00,0,Wunderground v.1.15,2013-03-13 12:00:00,
2013-03-13 02:10:00,65.0,65.0,30.05,NW,323,1.0,2.0,100,0.00,,,0.00,0,Wunderground v.1.15,2013-03-13 12:10:00,
2013-03-13 02:15:00,65.1,65.1,30.05,NW,323,2.0,2.0,100,0.00,,,0.00,0,Wunderground v.1.15,2013-03-13 12:15:00,
2013-03-13 02:20:00,65.1,65.1,30.05,NW,323,1.0,1.0,100,0.00,,,0.00,0,Wunderground v.1.15,2013-03-13 12:20:00,
2013-03-13 02:25:00,65.1,65.1,30.04,NW,323,0.0,1.0,100,0.00,,,0.00,0,Wunderground v.1.15,2013-03-13 12:25:00,
2013-03-13 02:30:00,65.1,65.1,30.04,NW,323,0.0,0.0,100,0.00,,,0.00,0,Wunderground v.1.15,2013-03-13 12:30:00,
2013-03-13 02:35:00,65.1,65.1,30.04,NW,323,0.0,0.0,100,0.00,,,0.00,0,Wunderground v.1.15,2013-03-13 12:35:00,
2013-03-13 02:40:00,65.1,65.1,30.04,NW,323,0.0,0.0,100,0.00,,,0.00,0,Wunderground v.1.15,2013-03-13 12:40:00,
2013-03-13 02:45:00,65.1,65.1,30.04,NW,323,1.0,2.0,100,0.00,,,0.00,0,Wunderground v.1.15,2013-03-13 12:45:00,
2013-03-13 02:50:00,65.0,65.0,30.04,NW,323,1.0,1.0,100,0.00,,,0.00,0,Wunderground v.1.15,2013-03-13 12:50:00,
2013-03-13 02:55:00,64.9,64.9,30.04,NW,323,1.0,1.0,100,0.00,,,0.00,0,Wunderground v.1.15,2013-03-13 12:55:00,
2013-03-13 03:00:00,64.9,64.9,30.04,NW,323,0.0,0.0,100,0.00,,,0.00,0,Wunderground v.1.15,2013-03-13 13:00:00,
2013-03-13 03:10:00,64.8,64.8,30.03,NW,323,0.0,0.0,100,0.00,,,0.00,0,Wunderground v.1.15,2013-03-13 13:10:00,
2013-03-13 03:15:00,64.7,64.7,30.03,NW,323,0.0,0.0,100,0.00,,,0.00,0,Wunderground v.1.15,2013-03-13 13:15:00,
2013-03-13 03:20:00,64.6,64.6,30.03,NW,323,0.0,0.0,100,0.00,,,0.00,0,Wunderground v.1.15,2013-03-13 13:20:00,
2013-03-13 03:25:00,64.6,64.6,30.03,NW,323,0.0,0.0,100,0.00,,,0.00,0,Wunderground v.1.15,2013-03-13 13:25:00,
2013-03-13 03:30:00,64.5,64.5,30.03,NW,323,1.0,2.0,100,0.00,,,0.00,0,Wunderground v.1.15,2013-03-13 13:30:00,
2013-03-13 03:35:00,64.5,64.5,30.03,NW,323,2.0,3.0,100,0.00,,,0.00,0,Wunderground v.1.15,2013-03-13 13:35:00,
2013-03-13 03:40:00,64.5,64.5,30.03,NW,323,2.0,2.0,100,0.00,,,0.00,0,Wunderground v.1.15,2013-03-13 13:40:00,
2013-03-13 03:45:00,64.7,64.7,30.03,NW,323,2.0,2.0,100,0.00,,,0.00,0,Wunderground v.1.15,2013-03-13 13:45:00,
2013-03-13 03:55:00,64.7,64.7,30.03,NW,323,2.0,3.0,100,0.00,,,0.00,0,Wunderground v.1.15,2013-03-13 13:55:00,
2013-03-13 04:00:00,64.8,64.8,30.03,NW,323,2.0,2.0,100,0.00,,,0.00,0,Wunderground v.1.15,2013-03-13 14:00:00,
2013-03-13 04:10:00,64.6,64.6,30.03,NW,323,0.0,2.0,100,0.00,,,0.00,0,Wunderground v.1.15,2013-03-13 14:10:00,
2013-03-13 04:20:00,64.4,64.4,30.03,NW,323,2.0,2.0,100,0.00,,,0.00,0,Wunderground v.1.15,2013-03-13 14:20:00,
2013-03-13 04:25:00,64.2,64.2,30.03,NW,323,2.0,2.0,100,0.00,,,0.00,0,Wunderground v.1.15,2013-03-13 14:25:00,
2013-03-13 04:30:00,64.0,64.0,30.03,NW,323,2.0,2.0,100,0.00,,,0.00,0,Wunderground v.1.15,2013-03-13 14:30:00,
2013-03-13 04:35:00,63.9,63.9,30.03,NW,323,1.0,3.0,100,0.00,,,0.00,0,Wunderground v.1.15,2013-03-13 14:35:00,
2013-03-13 04:40:00,63.7,63.7,30.03,NW,323,1.0,2.0,100,0.00,,,0.00,0,Wunderground v.1.15,2013-03-13 14:40:00,
2013-03-13 04:45:00,63.6,63.6,30.03,NW,323,2.0,3.0,100,0.00,,,0.00,0,Wunderground v.1.15,2013-03-13 14:45:00,
2013-03-13 04:50:00,63.5,63.5,30.03,NW,323,2.0,2.0,100,0.00,,,0.00,0,Wunderground v.1.15,2013-03-13 14:50:00,
2013-03-13 04:55:00,63.4,63.4,30.03,NW,323,1.0,2.0,100,0.00,,,0.00,0,Wunderground v.1.15,2013-03-13 14:55:00,
2013-03-13 05:00:00,63.3,63.3,30.03,NW,323,0.0,4.0,100,0.00,,,0.00,0,Wunderground v.1.15,2013-03-13 15:00:00,
2013-03-13 05:10:00,63.2,63.2,30.04,NW,323,3.0,3.0,100,0.00,,,0.00,0,Wunderground v.1.15,2013-03-13 15:10:00,
2013-03-13 05:15:00,63.2,63.2,30.04,NW,323,3.0,3.0,100,0.00,,,0.00,0,Wunderground v.1.15,2013-03-13 15:15:00,
2013-03-13 05:20:00,63.3,63.3,30.04,NW,323,3.0,3.0,100,0.00,,,0.00,0,Wunderground v.1.15,2013-03-13 15:20:00,
2013-03-13 05:25:00,63.2,63.2,30.04,NW,323,3.0,3.0,100,0.00,,,0.00,0,Wunderground v.1.15,2013-03-13 15:25:00,
2013-03-13 05:35:00,63.2,63.2,30.04,NW,323,2.0,3.0,100,0.00,,,0.00,0,Wunderground v.1.15,2013-03-13 15:35:00,
2013-03-13 05:40:00,63.1,63.1,30.04,NW,323,2.0,2.0,100,0.00,,,0.00,0,Wunderground v.1.15,2013-03-13 15:40:00,
2013-03-13 05:45:00,63.2,63.2,30.05,NW,324,2.0,2.0,100,0.00,,,0.00,0,Wunderground v.1.15,2013-03-13 15:45:00,
2013-03-13 05:50:00,63.1,62.8,30.05,NW,323,2.0,2.0,99,0.00,,,0.00,0,Wunderground v.1.15,2013-03-13 15:50:00,
2013-03-13 05:55:00,63.1,62.8,30.05,NW,323,2.0,3.0,99,0.00,,,0.00,0,Wunderground v.1.15,2013-03-13 15:55:00,
2013-03-13 06:00:00,63.0,62.7,30.05,NW,323,2.0,2.0,99,0.00,,,0.00,0,Wunderground v.1.15,2013-03-13 16:00:00,
2013-03-13 06:10:00,62.9,62.6,30.05,NW,324,2.0,2.0,99,0.00,,,0.00,0,Wunderground v.1.15,2013-03-13 16:10:00,
2013-03-13 06:15:00,62.8,62.5,30.05,NW,323,2.0,2.0,99,0.00,,,0.00,0,Wunderground v.1.15,2013-03-13 16:15:00,
2013-03-13 06:20:00,62.8,62.5,30.06,NW,323,2.0,4.0,99,0.00,,,0.00,0,Wunderground v.1.15,2013-03-13 16:20:00,
2013-03-13 06:25:00,62.8,62.5,30.06,NW,323,2.0,4.0,99,0.00,,,0.00,0,Wunderground v.1.15,2013-03-13 16:25:00,
2013-03-13 06:30:00,62.7,62.4,30.07,NW,323,2.0,2.0,99,0.00,,,0.00,0,Wunderground v.1.15,2013-03-13 16:30:00,
2013-03-13 06:35:00,62.6,62.3,30.07,NW,323,2.0,2.0,99,0.00,,,0.00,7,Wunderground v.1.15,2013-03-13 16:35:00,
2013-03-13 06:45:00,62.5,62.2,30.08,NW,323,2.0,4.0,99,0.00,,,0.00,19,Wunderground v.1.15,2013-03-13 16:45:00,
2013-03-13 06:50:00,62.4,62.1,30.08,NW,324,3.0,3.0,99,0.00,,,0.00,25,Wunderground v.1.15,2013-03-13 16:50:00,
2013-03-13 06:55:00,62.4,62.1,30.08,NW,324,3.0,3.0,99,0.00,,,0.00,33,Wunderground v.1.15,2013-03-13 16:55:00,
2013-03-13 07:00:00,62.4,62.4,30.08,NW,324,2.0,2.0,100,0.00,,,0.00,42,Wunderground v.1.15,2013-03-13 17:00:00,
2013-03-13 07:10:00,62.9,62.9,30.08,NW,324,2.0,2.0,100,0.00,,,0.00,72,Wunderground v.1.15,2013-03-13 17:10:00,
2013-03-13 07:15:00,63.1,63.1,30.08,NW,324,0.0,2.0,100,0.00,,,0.00,88,Wunderground v.1.15,2013-03-13 17:15:00,
2013-03-13 07:20:00,63.5,63.5,30.08,NW,324,1.0,4.0,100,0.00,,,0.00,107,Wunderground v.1.15,2013-03-13 17:20:00,
2013-03-13 07:25:00,64.0,64.0,30.08,NW,324,3.0,4.0,100,0.00,,,0.00,130,Wunderground v.1.15,2013-03-13 17:25:00,
2013-03-13 07:30:00,64.7,64.7,30.08,NW,324,3.0,3.0,100,0.00,,,0.00,148,Wunderground v.1.15,2013-03-13 17:30:00,
2013-03-13 07:35:00,65.5,65.5,30.08,NW,324,1.0,3.0,100,0.00,,,0.00,167,Wunderground v.1.15,2013-03-13 17:35:00,
2013-03-13 07:40:00,66.2,65.9,30.08,NW,324,0.0,0.0,99,0.00,,,0.00,192,Wunderground v.1.15,2013-03-13 17:40:00,
2013-03-13 07:45:00,66.7,66.4,30.08,NW,324,0.0,0.0,99,0.00,,,0.00,209,Wunderground v.1.15,2013-03-13 17:45:00,
2013-03-13 07:50:00,67.1,66.8,30.08,NW,324,0.0,3.0,99,0.00,,,0.00,229,Wunderground v.1.15,2013-03-13 17:50:00,
2013-03-13 08:00:00,68.2,67.3,30.09,NW,324,2.0,2.0,97,0.00,,,0.00,267,Wunderground v.1.15,2013-03-13 18:00:00,
2013-03-13 08:10:00,69.3,67.5,30.09,NW,325,0.0,0.0,94,0.00,,,0.00,299,Wunderground v.1.15,2013-03-13 18:10:00,
2013-03-13 08:15:00,70.0,67.6,30.09,NW,325,0.0,0.0,92,0.00,,,0.00,322,Wunderground v.1.15,2013-03-13 18:15:00,
2013-03-13 08:20:00,70.7,67.9,30.09,NW,325,0.0,4.0,91,0.00,,,0.00,336,Wunderground v.1.15,2013-03-13 18:20:00,
2013-03-13 08:25:00,71.3,67.9,30.08,NW,325,1.0,4.0,89,0.00,,,0.00,359,Wunderground v.1.15,2013-03-13 18:25:00,
2013-03-13 08:30:00,71.8,68.4,30.09,NW,325,2.0,2.0,89,0.00,,,0.00,380,Wunderground v.1.15,2013-03-13 18:30:00,
2013-03-13 08:40:00,72.5,67.0,30.10,NW,325,0.0,0.0,83,0.00,,,0.00,418,Wunderground v.1.15,2013-03-13 18:40:00,
2013-03-13 08:45:00,73.0,67.5,30.10,NW,325,0.0,0.0,83,0.00,,,0.00,436,Wunderground v.1.15,2013-03-13 18:45:00,
2013-03-13 08:50:00,73.7,67.5,30.10,ESE,106,1.0,5.0,81,0.00,,,0.00,461,Wunderground v.1.15,2013-03-13 18:50:00,
2013-03-13 08:55:00,74.0,67.4,30.10,ESE,108,2.0,5.0,80,0.00,,,0.00,482,Wunderground v.1.15,2013-03-13 18:55:00,
2013-03-13 09:00:00,74.4,67.5,30.10,ESE,107,2.0,4.0,79,0.00,,,0.00,503,Wunderground v.1.15,2013-03-13 19:00:00,
2013-03-13 09:10:00,74.7,67.0,30.10,ESE,107,1.0,1.0,77,0.00,,,0.00,540,Wunderground v.1.15,2013-03-13 19:10:00,
2013-03-13 09:15:00,74.9,67.2,30.11,ESE,122,1.0,2.0,77,0.00,,,0.00,561,Wunderground v.1.15,2013-03-13 19:15:00,
2013-03-13 09:20:00,74.9,67.2,30.10,ESE,112,2.0,3.0,77,0.00,,,0.00,582,Wunderground v.1.15,2013-03-13 19:20:00,
2013-03-13 09:25:00,74.8,66.7,30.11,SE,144,3.0,5.0,76,0.00,,,0.00,601,Wunderground v.1.15,2013-03-13 19:25:00,
2013-03-13 09:30:00,74.9,67.9,30.11,SE,139,4.0,4.0,79,0.00,,,0.00,596,Wunderground v.1.15,2013-03-13 19:30:00,
2013-03-13 09:40:00,74.7,68.1,30.11,SE,132,3.0,3.0,80,0.00,,,0.00,652,Wunderground v.1.15,2013-03-13 19:40:00,
2013-03-13 09:45:00,75.0,68.0,30.11,SE,133,2.0,3.0,79,0.00,,,0.00,675,Wunderground v.1.15,2013-03-13 19:45:00,
2013-03-13 09:55:00,75.0,67.7,30.12,South,170,2.0,6.0,78,0.00,,,0.00,701,Wunderground v.1.15,2013-03-13 19:55:00,
2013-03-13 10:00:00,74.5,67.2,30.12,SSW,192,3.0,5.0,78,0.00,,,0.00,348,Wunderground v.1.15,2013-03-13 20:00:00,
2013-03-13 10:10:00,74.6,67.7,30.12,SSE,161,2.0,5.0,79,0.00,,,0.00,366,Wunderground v.1.15,2013-03-13 20:10:00,
2013-03-13 10:15:00,74.7,67.4,30.12,SSW,202,2.0,5.0,78,0.00,,,0.00,401,Wunderground v.1.15,2013-03-13 20:15:00,
2013-03-13 10:20:00,75.0,68.0,30.12,East,79,3.0,4.0,79,0.00,,,0.00,422,Wunderground v.1.15,2013-03-13 20:20:00,
2013-03-13 10:30:00,75.2,68.2,30.11,South,186,2.0,2.0,79,0.00,,,0.00,390,Wunderground v.1.15,2013-03-13 20:30:00,
2013-03-13 10:40:00,75.4,69.5,30.11,ESE,107,3.0,4.0,82,0.00,,,0.00,942,Wunderground v.1.15,2013-03-13 20:40:00,
2013-03-13 10:45:00,75.4,69.2,30.11,East,80,3.0,5.0,81,0.00,,,0.00,287,Wunderground v.1.15,2013-03-13 20:45:00,
2013-03-13 10:55:00,75.1,69.9,30.10,SE,142,3.0,7.0,84,0.00,,,0.00,1085,Wunderground v.1.15,2013-03-13 20:55:00,
2013-03-13 11:00:00,75.6,70.4,30.10,SSE,149,5.0,5.0,84,0.00,,,0.00,979,Wunderground v.1.15,2013-03-13 21:00:00,
2013-03-13 11:10:00,76.0,70.8,30.10,SE,130,5.0,7.0,84,0.00,,,0.00,1058,Wunderground v.1.15,2013-03-13 21:10:00,
2013-03-13 11:15:00,76.2,70.7,30.09,East,94,5.0,7.0,83,0.00,,,0.00,749,Wunderground v.1.15,2013-03-13 21:15:00,
2013-03-13 11:20:00,76.3,71.1,30.09,ENE,78,6.0,6.0,84,0.00,,,0.00,541,Wunderground v.1.15,2013-03-13 21:20:00,
2013-03-13 11:25:00,76.1,70.9,30.08,ESE,113,6.0,6.0,84,0.00,,,0.00,1083,Wunderground v.1.15,2013-03-13 21:25:00,
2013-03-13 11:35:00,75.9,70.7,30.08,SSE,156,7.0,11.0,84,0.00,,,0.00,1037,Wunderground v.1.15,2013-03-13 21:35:00,
2013-03-13 11:40:00,76.2,71.4,30.07,ESE,113,7.0,7.0,85,0.00,,,0.00,462,Wunderground v.1.15,2013-03-13 21:40:00,
2013-03-13 11:45:00,76.2,71.4,30.07,SE,142,7.0,10.0,85,0.00,,,0.00,1097,Wunderground v.1.15,2013-03-13 21:45:00,
2013-03-13 11:50:00,76.1,71.3,30.06,ESE,109,8.0,10.0,85,0.00,,,0.00,1055,Wunderground v.1.15,2013-03-13 21:50:00,
2013-03-13 12:01:00,74.7,70.6,30.06,East,96,8.0,8.0,87,0.00,,,0.00,503,Wunderground v.1.15,2013-03-13 22:01:00,
2013-03-13 12:10:00,74.5,70.4,30.07,ESE,117,8.0,13.0,87,0.00,,,0.00,408,Wunderground v.1.15,2013-03-13 22:10:00,
2013-03-13 12:15:00,74.6,70.8,30.06,SE,145,8.0,13.0,88,0.00,,,0.00,410,Wunderground v.1.15,2013-03-13 22:15:00,
2013-03-13 12:20:00,74.5,70.7,30.06,East,97,8.0,8.0,88,0.00,,,0.00,547,Wunderground v.1.15,2013-03-13 22:20:00,
2013-03-13 12:25:00,74.6,70.8,30.06,ENE,74,9.0,9.0,88,0.00,,,0.00,733,Wunderground v.1.15,2013-03-13 22:25:00,
2013-03-13 12:30:00,74.3,70.8,30.05,SE,136,9.0,9.0,89,0.00,,,0.00,548,Wunderground v.1.15,2013-03-13 22:30:00,
2013-03-13 12:35:00,73.9,70.1,30.05,ENE,60,9.0,9.0,88,0.00,,,0.00,415,Wunderground v.1.15,2013-03-13 22:35:00,
2013-03-13 12:40:00,73.9,70.5,30.05,ESE,111,8.0,9.0,89,0.00,,,0.00,443,Wunderground v.1.15,2013-03-13 22:40:00,
2013-03-13 12:45:00,73.6,70.5,30.05,ESE,117,8.0,11.0,90,0.00,,,0.00,422,Wunderground v.1.15,2013-03-13 22:45:00,
2013-03-13 12:55:00,73.4,70.0,30.06,SE,136,8.0,9.0,89,0.00,,,0.00,209,Wunderground v.1.15,2013-03-13 22:55:00,
2013-03-13 13:00:00,73.1,69.7,30.06,SE,142,8.0,9.0,89,0.00,,,0.00,195,Wunderground v.1.15,2013-03-13 23:00:00,
2013-03-13 13:10:00,72.7,69.6,30.06,SSE,161,6.0,6.0,90,0.00,,,0.00,174,Wunderground v.1.15,2013-03-13 23:10:00,
2013-03-13 13:20:00,72.2,69.7,30.05,SE,135,6.0,13.0,92,0.00,,,0.00,232,Wunderground v.1.15,2013-03-13 23:20:00,
2013-03-13 13:25:00,71.8,69.3,30.05,ESE,116,8.0,13.0,92,0.00,,,0.00,193,Wunderground v.1.15,2013-03-13 23:25:00,
2013-03-13 13:30:00,71.5,69.4,30.05,SE,138,9.0,9.0,93,0.00,,,0.00,287,Wunderground v.1.15,2013-03-13 23:30:00,
2013-03-13 13:35:00,71.6,69.5,30.05,East,82,8.0,9.0,93,0.00,,,0.00,195,Wunderground v.1.15,2013-03-13 23:35:00,
2013-03-13 13:40:00,71.5,69.1,30.05,SE,139,7.0,7.0,92,0.00,,,0.00,141,Wunderground v.1.15,2013-03-13 23:40:00,
2013-03-13 13:45:00,71.3,68.9,30.05,ESE,108,8.0,8.0,92,0.00,,,0.00,134,Wunderground v.1.15,2013-03-13 23:45:00,
2013-03-13 13:50:00,71.1,68.7,30.05,SE,130,8.0,8.0,92,0.00,,,0.00,246,Wunderground v.1.15,2013-03-13 23:50:00,
2013-03-13 13:55:00,71.1,68.7,30.05,ENE,74,7.0,9.0,92,0.00,,,0.00,125,Wunderground v.1.15,2013-03-13 23:55:00,
2013-03-13 14:00:00,71.1,68.7,30.05,SE,135,7.0,12.0,92,0.00,,,0.00,114,Wunderground v.1.15,2013-03-14 00:00:00,
2013-03-13 14:10:00,70.9,68.8,30.05,NE,49,7.0,7.0,93,0.00,,,0.00,84,Wunderground v.1.15,2013-03-14 00:10:00,
2013-03-13 14:15:00,70.9,68.8,30.05,SSE,147,6.0,7.0,93,0.00,,,0.00,83,Wunderground v.1.15,2013-03-14 00:15:00,
2013-03-13 14:20:00,70.7,68.6,30.04,SE,142,6.0,6.0,93,0.00,,,0.00,93,Wunderground v.1.15,2013-03-14 00:20:00,
2013-03-13 14:30:00,70.7,68.6,30.04,SE,145,7.0,7.0,93,0.00,,,0.00,79,Wunderground v.1.15,2013-03-14 00:30:00,
2013-03-13 14:40:00,70.5,69.0,30.04,ENE,74,5.0,5.0,95,0.00,,,0.00,65,Wunderground v.1.15,2013-03-14 00:40:00,
2013-03-13 14:45:00,70.4,68.9,30.03,East,84,5.0,5.0,95,0.00,,,0.00,62,Wunderground v.1.15,2013-03-14 00:45:00,
2013-03-13 14:50:00,70.4,68.9,30.03,SSE,153,5.0,5.0,95,0.00,,,0.00,70,Wunderground v.1.15,2013-03-14 00:50:00,
2013-03-13 14:55:00,70.3,68.8,30.03,SSE,156,6.0,6.0,95,0.00,,,0.00,44,Wunderground v.1.15,2013-03-14 00:55:00,
2013-03-13 15:00:00,70.3,69.1,30.03,SE,138,5.0,5.0,96,0.00,,,0.00,44,Wunderground v.1.15,2013-03-14 01:00:00,
2013-03-13 15:10:00,70.0,68.5,30.03,SE,138,6.0,6.0,95,0.00,,,0.00,72,Wunderground v.1.15,2013-03-14 01:10:00,
2013-03-13 15:15:00,70.1,68.9,30.03,SE,134,6.0,6.0,96,0.00,,,0.00,60,Wunderground v.1.15,2013-03-14 01:15:00,
2013-03-13 15:20:00,70.1,68.9,30.03,SE,125,5.0,5.0,96,0.00,,,0.00,56,Wunderground v.1.15,2013-03-14 01:20:00,
2013-03-13 15:25:00,70.2,69.0,30.03,East,96,5.0,5.0,96,0.00,,,0.00,81,Wunderground v.1.15,2013-03-14 01:25:00,
2013-03-13 15:30:00,70.2,69.0,30.03,East,100,4.0,4.0,96,0.00,,,0.00,63,Wunderground v.1.15,2013-03-14 01:30:00,
2013-03-13 15:35:00,70.2,69.0,30.03,SE,128,3.0,8.0,96,0.00,,,0.00,47,Wunderground v.1.15,2013-03-14 01:35:00,
2013-03-13 15:40:00,70.0,68.5,30.03,SE,134,4.0,6.0,95,0.00,,,0.00,69,Wunderground v.1.15,2013-03-14 01:40:00,
2013-03-13 15:50:00,70.0,68.5,30.03,SE,128,4.0,5.0,95,0.00,,,0.00,35,Wunderground v.1.15,2013-03-14 01:50:00,
2013-03-13 15:55:00,70.1,68.6,30.03,SSE,147,5.0,5.0,95,0.00,,,0.00,32,Wunderground v.1.15,2013-03-14 01:55:00,
2013-03-13 16:00:00,69.8,68.6,30.03,SE,140,6.0,9.0,96,0.00,,,0.00,40,Wunderground v.1.15,2013-03-14 02:00:00,
2013-03-13 16:10:00,69.8,68.6,30.03,SE,139,4.0,5.0,96,0.00,,,0.00,33,Wunderground v.1.15,2013-03-14 02:10:00,
2013-03-13 16:15:00,69.8,68.6,30.04,SE,130,4.0,11.0,96,0.00,,,0.00,32,Wunderground v.1.15,2013-03-14 02:15:00,
2013-03-13 16:20:00,69.8,68.6,30.04,SE,126,4.0,4.0,96,0.00,,,0.00,33,Wunderground v.1.15,2013-03-14 02:20:00,
2013-03-13 16:25:00,69.9,68.7,30.04,SSE,154,4.0,4.0,96,0.00,,,0.00,40,Wunderground v.1.15,2013-03-14 02:25:00,
2013-03-13 16:30:00,69.9,68.7,30.04,SE,145,3.0,3.0,96,0.00,,,0.00,42,Wunderground v.1.15,2013-03-14 02:30:00,
2013-03-13 16:35:00,69.8,68.6,30.04,SE,144,3.0,3.0,96,0.00,,,0.00,47,Wunderground v.1.15,2013-03-14 02:35:00,
2013-03-13 16:40:00,69.8,68.6,30.04,SE,141,2.0,6.0,96,0.00,,,0.00,32,Wunderground v.1.15,2013-03-14 02:40:00,
2013-03-13 16:45:00,69.8,68.6,30.04,SE,146,3.0,6.0,96,0.00,,,0.00,30,Wunderground v.1.15,2013-03-14 02:45:00,
2013-03-13 16:55:00,69.9,68.7,30.04,SE,136,4.0,7.0,96,0.00,,,0.00,35,Wunderground v.1.15,2013-03-14 02:55:00,
2013-03-13 17:00:00,69.8,68.9,30.04,SE,137,3.0,3.0,97,0.00,,,0.00,33,Wunderground v.1.15,2013-03-14 03:00:00,
2013-03-13 17:10:00,69.8,68.9,30.05,SE,136,3.0,5.0,97,0.00,,,0.00,19,Wunderground v.1.15,2013-03-14 03:10:00,
2013-03-13 17:15:00,69.7,68.8,30.05,SE,136,3.0,5.0,97,0.00,,,0.00,23,Wunderground v.1.15,2013-03-14 03:15:00,
2013-03-13 17:20:00,69.5,68.6,30.05,SE,131,3.0,3.0,97,0.00,,,0.00,16,Wunderground v.1.15,2013-03-14 03:20:00,
2013-03-13 17:25:00,69.4,68.5,30.05,SE,132,3.0,4.0,97,0.00,,,0.00,12,Wunderground v.1.15,2013-03-14 03:25:00,
2013-03-13 17:35:00,69.3,68.7,30.05,ESE,108,3.0,4.0,98,0.00,,,0.00,16,Wunderground v.1.15,2013-03-14 03:35:00,
2013-03-13 17:40:00,69.3,68.7,30.05,ESE,109,2.0,3.0,98,0.00,,,0.00,12,Wunderground v.1.15,2013-03-14 03:40:00,
2013-03-13 17:45:00,69.2,68.6,30.05,ESE,106,2.0,3.0,98,0.00,,,0.00,11,Wunderground v.1.15,2013-03-14 03:45:00,
2013-03-13 17:50:00,69.2,68.3,30.06,ESE,107,2.0,2.0,97,0.00,,,0.00,11,Wunderground v.1.15,2013-03-14 03:50:00,
2013-03-13 17:55:00,69.2,68.3,30.06,ESE,109,1.0,2.0,97,0.00,,,0.00,9,Wunderground v.1.15,2013-03-14 03:55:00,
2013-03-13 18:00:00,69.3,68.7,30.06,ESE,109,1.0,1.0,98,0.00,,,0.00,7,Wunderground v.1.15,2013-03-14 04:00:00,
2013-03-13 18:05:00,69.3,68.7,30.06,ESE,109,1.0,3.0,98,0.00,,,0.00,7,Wunderground v.1.15,2013-03-14 04:05:00,
2013-03-13 18:10:00,69.3,68.7,30.06,ESE,109,1.0,1.0,98,0.00,,,0.00,5,Wunderground v.1.15,2013-03-14 04:10:00,
2013-03-13 18:15:00,69.3,68.7,30.06,ESE,109,0.0,1.0,98,0.00,,,0.00,0,Wunderground v.1.15,2013-03-14 04:15:00,
2013-03-13 18:20:00,69.3,68.7,30.07,ESE,109,0.0,0.0,98,0.00,,,0.00,0,Wunderground v.1.15,2013-03-14 04:20:00,
2013-03-13 18:25:00,69.3,68.7,30.07,ESE,109,1.0,1.0,98,0.00,,,0.00,0,Wunderground v.1.15,2013-03-14 04:25:00,
2013-03-13 18:30:00,69.3,68.7,30.07,ESE,109,0.0,0.0,98,0.00,,,0.00,0,Wunderground v.1.15,2013-03-14 04:30:00,
2013-03-13 18:35:00,69.3,68.7,30.07,ESE,109,0.0,0.0,98,0.00,,,0.00,0,Wunderground v.1.15,2013-03-14 04:35:00,
2013-03-13 18:40:00,69.3,68.7,30.07,ESE,109,0.0,0.0,98,0.00,,,0.00,0,Wunderground v.1.15,2013-03-14 04:40:00,
2013-03-13 18:45:00,69.3,68.7,30.07,ESE,109,0.0,0.0,98,0.00,,,0.00,0,Wunderground v.1.15,2013-03-14 04:45:00,
2013-03-13 18:50:00,69.2,68.6,30.07,ESE,109,0.0,0.0,98,0.00,,,0.00,0,Wunderground v.1.15,2013-03-14 04:50:00,
2013-03-13 18:55:00,69.0,68.4,30.08,ESE,109,1.0,2.0,98,0.00,,,0.00,0,Wunderground v.1.15,2013-03-14 04:55:00,
2013-03-13 19:00:00,68.9,68.6,30.08,ESE,109,1.0,1.0,99,0.00,,,0.00,0,Wunderground v.1.15,2013-03-14 05:00:00,
2013-03-13 19:10:00,68.7,68.4,30.08,ESE,108,1.0,2.0,99,0.00,,,0.00,0,Wunderground v.1.15,2013-03-14 05:10:00,
2013-03-13 19:15:00,68.7,68.4,30.08,ESE,109,2.0,2.0,99,0.00,,,0.00,0,Wunderground v.1.15,2013-03-14 05:15:00,
2013-03-13 19:20:00,68.6,68.3,30.08,ESE,109,1.0,1.0,99,0.00,,,0.00,0,Wunderground v.1.15,2013-03-14 05:20:00,
2013-03-13 19:30:00,68.5,68.5,30.09,ESE,109,0.0,0.0,100,0.00,,,0.00,0,Wunderground v.1.15,2013-03-14 05:30:00,
2013-03-13 19:35:00,68.5,68.5,30.09,ESE,109,0.0,0.0,100,0.00,,,0.00,0,Wunderground v.1.15,2013-03-14 05:35:00,
2013-03-13 19:40:00,68.4,68.4,30.09,ESE,109,0.0,0.0,100,0.00,,,0.00,0,Wunderground v.1.15,2013-03-14 05:40:00,
2013-03-13 19:45:00,68.3,68.3,30.09,ESE,109,0.0,0.0,100,0.00,,,0.00,0,Wunderground v.1.15,2013-03-14 05:45:00,
2013-03-13 19:50:00,68.3,68.3,30.09,ESE,109,0.0,0.0,100,0.00,,,0.00,0,Wunderground v.1.15,2013-03-14 05:50:00,
2013-03-13 19:55:00,68.2,68.2,30.09,ESE,109,1.0,1.0,100,0.00,,,0.00,0,Wunderground v.1.15,2013-03-14 05:55:00,
2013-03-13 20:00:00,68.2,68.2,30.10,ESE,109,1.0,1.0,100,0.00,,,0.00,0,Wunderground v.1.15,2013-03-14 06:00:00,
2013-03-13 20:10:00,68.1,68.1,30.09,ESE,108,0.0,0.0,100,0.00,,,0.00,0,Wunderground v.1.15,2013-03-14 06:10:00,
2013-03-13 20:15:00,68.0,68.0,30.10,ESE,108,0.0,0.0,100,0.00,,,0.00,0,Wunderground v.1.15,2013-03-14 06:15:00,
2013-03-13 20:20:00,67.9,67.9,30.10,ESE,108,0.0,0.0,100,0.00,,,0.00,0,Wunderground v.1.15,2013-03-14 06:20:00,
2013-03-13 20:25:00,67.8,67.8,30.11,ESE,108,0.0,0.0,100,0.00,,,0.00,0,Wunderground v.1.15,2013-03-14 06:25:00,
2013-03-13 20:30:00,67.7,67.7,30.11,ESE,108,0.0,0.0,100,0.00,,,0.00,0,Wunderground v.1.15,2013-03-14 06:30:00,
2013-03-13 20:40:00,67.6,67.6,30.11,ESE,108,2.0,2.0,100,0.00,,,0.00,0,Wunderground v.1.15,2013-03-14 06:40:00,
2013-03-13 20:50:00,67.6,67.6,30.11,ESE,108,0.0,0.0,100,0.00,,,0.00,0,Wunderground v.1.15,2013-03-14 06:50:00,
2013-03-13 20:55:00,67.6,67.6,30.11,ESE,108,0.0,0.0,100,0.00,,,0.00,0,Wunderground v.1.15,2013-03-14 06:55:00,
2013-03-13 21:00:00,67.6,67.6,30.11,ESE,108,0.0,0.0,100,0.00,,,0.00,0,Wunderground v.1.15,2013-03-14 07:00:00,
2013-03-13 21:10:00,67.5,67.5,30.11,ESE,108,0.0,0.0,100,0.00,,,0.00,0,Wunderground v.1.15,2013-03-14 07:10:00,
2013-03-13 21:20:00,67.3,67.3,30.11,ESE,107,2.0,2.0,100,0.00,,,0.00,0,Wunderground v.1.15,2013-03-14 07:20:00,
2013-03-13 21:25:00,67.3,67.3,30.11,ESE,107,1.0,2.0,100,0.00,,,0.00,0,Wunderground v.1.15,2013-03-14 07:25:00,
2013-03-13 21:30:00,67.3,67.3,30.11,ESE,107,0.0,0.0,100,0.00,,,0.00,0,Wunderground v.1.15,2013-03-14 07:30:00,
2013-03-13 21:35:00,67.2,67.2,30.12,ESE,107,0.0,0.0,100,0.00,,,0.00,0,Wunderground v.1.15,2013-03-14 07:35:00,
2013-03-13 21:40:00,67.1,67.1,30.12,NNE,28,1.0,3.0,100,0.00,,,0.00,0,Wunderground v.1.15,2013-03-14 07:40:00,
2013-03-13 21:45:00,67.0,67.0,30.12,NNE,28,2.0,3.0,100,0.00,,,0.00,0,Wunderground v.1.15,2013-03-14 07:45:00,
2013-03-13 21:55:00,66.8,66.8,30.12,NNE,28,2.0,2.0,100,0.00,,,0.00,0,Wunderground v.1.15,2013-03-14 07:55:00,
2013-03-13 22:00:00,66.6,66.6,30.12,NNE,28,2.0,2.0,100,0.00,,,0.00,0,Wunderground v.1.15,2013-03-14 08:00:00,
2013-03-13 22:10:00,66.4,66.4,30.12,NNE,28,2.0,2.0,100,0.00,,,0.00,0,Wunderground v.1.15,2013-03-14 08:10:00,
2013-03-13 22:15:00,66.4,66.4,30.12,NNE,28,2.0,2.0,100,0.00,,,0.00,0,Wunderground v.1.15,2013-03-14 08:15:00,
2013-03-13 22:20:00,66.4,66.4,30.12,NNE,27,2.0,2.0,100,0.00,,,0.00,0,Wunderground v.1.15,2013-03-14 08:20:00,
2013-03-13 22:25:00,66.4,66.4,30.12,NNE,27,2.0,2.0,100,0.00,,,0.00,0,Wunderground v.1.15,2013-03-14 08:25:00,
2013-03-13 22:30:00,66.5,66.5,30.12,NNE,27,2.0,2.0,100,0.00,,,0.00,0,Wunderground v.1.15,2013-03-14 08:30:00,
2013-03-13 22:35:00,66.5,66.5,30.12,NNE,27,2.0,3.0,100,0.00,,,0.00,0,Wunderground v.1.15,2013-03-14 08:35:00,
2013-03-13 22:40:00,66.5,66.5,30.12,NNE,27,1.0,1.0,100,0.00,,,0.00,0,Wunderground v.1.15,2013-03-14 08:40:00,
2013-03-13 22:45:00,66.6,66.6,30.12,NNE,27,0.0,1.0,100,0.00,,,0.00,0,Wunderground v.1.15,2013-03-14 08:45:00,
2013-03-13 22:50:00,66.6,66.6,30.12,NNE,27,0.0,2.0,100,0.00,,,0.00,0,Wunderground v.1.15,2013-03-14 08:50:00,
2013-03-13 22:55:00,66.5,66.5,30.12,NNE,27,1.0,2.0,100,0.00,,,0.00,0,Wunderground v.1.15,2013-03-14 08:55:00,
2013-03-13 23:00:00,66.5,66.5,30.12,NNE,27,1.0,1.0,100,0.00,,,0.00,0,Wunderground v.1.15,2013-03-14 09:00:00,
2013-03-13 23:10:00,66.4,66.4,30.12,NNE,27,0.0,2.0,100,0.00,,,0.00,0,Wunderground v.1.15,2013-03-14 09:10:00,
2013-03-13 23:15:00,66.3,66.3,30.12,NNE,27,1.0,2.0,100,0.00,,,0.00,0,Wunderground v.1.15,2013-03-14 09:15:00,
2013-03-13 23:20:00,66.3,66.3,30.12,NNE,27,1.0,1.0,100,0.00,,,0.00,0,Wunderground v.1.15,2013-03-14 09:20:00,
2013-03-13 23:25:00,66.2,66.2,30.12,NNE,27,1.0,1.0,100,0.00,,,0.00,0,Wunderground v.1.15,2013-03-14 09:25:00,
2013-03-13 23:30:00,66.2,66.2,30.12,NNE,27,1.0,3.0,100,0.00,,,0.00,0,Wunderground v.1.15,2013-03-14 09:30:00,
2013-03-13 23:35:00,66.2,66.2,30.12,NNE,27,2.0,3.0,100,0.00,,,0.00,0,Wunderground v.1.15,2013-03-14 09:35:00,
2013-03-13 23:40:00,66.2,66.2,30.12,NNE,27,1.0,1.0,100,0.00,,,0.00,0,Wunderground v.1.15,2013-03-14 09:40:00,
2013-03-13 23:45:00,66.3,66.3,30.13,NNE,27,1.0,1.0,100,0.00,,,0.00,0,Wunderground v.1.15,2013-03-14 09:45:00,
2013-03-13 23:50:00,66.4,66.4,30.13,NNE,27,1.0,3.0,100,0.00,,,0.00,0,Wunderground v.1.15,2013-03-14 09:50:00,